createdAt,value
2022-09-25T00:00:36.494Z,6.50
2022-09-25T00:03:06.687Z,5.90
2022-09-25T00:05:38.098Z,6.03
2022-09-25T00:08:09.019Z,5.60
2022-09-25T00:10:40.485Z,5.35
2022-09-25T00:13:10.966Z,6.42
2022-09-25T00:15:42.400Z,7.25
2022-09-25T00:18:12.522Z,5.42
2022-09-25T00:20:42.946Z,11.30
2022-09-25T00:23:13.597Z,16.80
2022-09-25T00:25:45.957Z,31.42
2022-09-25T00:28:18.284Z,10.90
2022-09-25T00:30:47.472Z,8.60
2022-09-25T00:33:17.641Z,5.42
2022-09-25T00:35:47.865Z,5.53
2022-09-25T00:38:18.086Z,7.60
2022-09-25T00:40:48.242Z,6.50
2022-09-25T00:43:19.580Z,7.62
2022-09-25T00:45:49.829Z,5.83
2022-09-25T00:48:20.094Z,6.97
2022-09-25T00:50:51.449Z,7.50
2022-09-25T00:53:22.764Z,6.70
2022-09-25T00:55:53.156Z,6.42
2022-09-25T00:58:24.632Z,4.75
2022-09-25T01:00:55.311Z,4.55
2022-09-25T01:03:27.167Z,5.60
2022-09-25T01:05:57.424Z,5.30
2022-09-25T01:08:29.099Z,5.20
2022-09-25T01:10:59.362Z,7.45
2022-09-25T01:13:33.577Z,5.08
2022-09-25T01:16:06.292Z,7.70
2022-09-25T01:18:38.637Z,5.20
2022-09-25T01:21:09.960Z,4.85
2022-09-25T01:23:41.264Z,4.50
2022-09-25T01:26:15.573Z,6.33
2022-09-25T01:28:45.207Z,4.40
2022-09-25T01:31:16.556Z,4.78
2022-09-25T01:33:47.948Z,5.87
2022-09-25T01:36:19.310Z,4.20
2022-09-25T01:38:50.753Z,4.95
2022-09-25T01:41:22.211Z,6.28
2022-09-25T01:43:53.646Z,5.67
2022-09-25T01:46:25.316Z,6.67
2022-09-25T01:48:59.234Z,6.10
2022-09-25T01:51:30.545Z,4.40
2022-09-25T01:54:01.912Z,5.20
2022-09-25T01:56:34.812Z,4.72
2022-09-25T01:59:06.263Z,4.25
2022-09-25T02:01:37.830Z,6.12
2022-09-25T02:04:09.343Z,6.05
2022-09-25T02:06:40.787Z,5.05
2022-09-25T02:09:12.137Z,12.03
2022-09-25T02:11:43.702Z,4.72
2022-09-25T02:14:14.950Z,8.23
2022-09-25T02:16:45.420Z,9.33
2022-09-25T02:19:18.104Z,7.28
2022-09-25T02:21:47.868Z,6.85
2022-09-25T02:24:19.283Z,5.90
2022-09-25T02:26:49.994Z,5.55
2022-09-25T02:29:20.961Z,5.08
2022-09-25T02:31:52.378Z,5.28
2022-09-25T02:34:23.378Z,4.55
2022-09-25T02:36:53.905Z,6.75
2022-09-25T02:39:25.242Z,5.50
2022-09-25T02:41:56.694Z,6.20
2022-09-25T02:44:27.976Z,5.53
2022-09-25T02:47:00.406Z,8.53
2022-09-25T02:49:31.712Z,5.15
2022-09-25T02:52:03.176Z,6.72
2022-09-25T02:54:32.863Z,4.62
2022-09-25T02:57:04.527Z,4.00
2022-09-25T02:59:35.970Z,6.17
2022-09-25T03:02:06.332Z,4.05
2022-09-25T03:04:37.666Z,6.05
2022-09-25T03:07:08.587Z,5.78
2022-09-25T03:09:39.927Z,4.65
2022-09-25T03:12:10.065Z,4.22
2022-09-25T03:14:41.189Z,6.40
2022-09-25T03:17:11.737Z,6.53
2022-09-25T03:19:42.004Z,6.33
2022-09-25T03:22:13.193Z,5.12
2022-09-25T03:24:43.351Z,4.17
2022-09-25T03:27:13.632Z,4.70
2022-09-25T03:29:43.767Z,4.78
2022-09-25T03:32:14.811Z,4.50
2022-09-25T03:34:44.916Z,4.97
2022-09-25T03:37:15.051Z,3.47
2022-09-25T03:39:45.081Z,3.98
2022-09-25T03:42:15.742Z,4.30
2022-09-25T03:44:45.753Z,3.50
2022-09-25T03:47:16.052Z,3.40
2022-09-25T03:49:46.135Z,4.10
2022-09-25T03:52:16.422Z,3.55
2022-09-25T03:54:46.441Z,5.30
2022-09-25T03:57:16.717Z,4.42
2022-09-25T03:59:46.767Z,5.33
2022-09-25T04:02:16.779Z,4.35
2022-09-25T04:04:47.104Z,5.30
2022-09-25T04:07:17.803Z,3.58
2022-09-25T04:09:47.852Z,4.37
2022-09-25T04:12:19.541Z,3.95
2022-09-25T04:14:49.869Z,4.05
2022-09-25T04:17:20.499Z,3.70
2022-09-25T04:19:50.571Z,5.42
2022-09-25T04:22:20.717Z,4.83
2022-09-25T04:24:50.855Z,4.45
2022-09-25T04:27:22.961Z,3.92
2022-09-25T04:29:53.099Z,4.17
2022-09-25T04:32:24.434Z,3.98
2022-09-25T04:34:54.527Z,5.78
2022-09-25T04:37:25.879Z,6.12
2022-09-25T04:39:56.575Z,5.72
2022-09-25T04:42:27.074Z,4.72
2022-09-25T04:44:57.813Z,4.53
2022-09-25T04:47:30.702Z,8.25
2022-09-25T04:50:00.827Z,5.45
2022-09-25T04:52:32.249Z,4.17
2022-09-25T04:55:02.305Z,4.78
2022-09-25T04:57:57.266Z,4.33
2022-09-25T05:00:04.229Z,5.35
2022-09-25T05:02:34.595Z,5.12
2022-09-25T05:05:05.142Z,4.75
2022-09-25T05:07:38.189Z,4.33
2022-09-25T05:10:09.859Z,4.75
2022-09-25T05:12:40.068Z,4.72
2022-09-25T05:15:11.542Z,5.28
2022-09-25T05:17:41.640Z,6.15
2022-09-25T05:20:12.506Z,4.78
2022-09-25T05:22:42.496Z,5.00
2022-09-25T05:25:12.983Z,6.17
2022-09-25T05:27:42.984Z,5.17
2022-09-25T05:30:13.185Z,4.97
2022-09-25T05:32:44.464Z,6.45
2022-09-25T05:35:14.780Z,5.05
2022-09-25T05:37:44.850Z,6.55
2022-09-25T05:40:16.897Z,7.12
2022-09-25T05:42:48.039Z,5.20
2022-09-25T05:45:18.605Z,4.80
2022-09-25T05:47:49.124Z,6.42
2022-09-25T05:50:19.587Z,4.80
2022-09-25T05:52:51.111Z,6.05
2022-09-25T05:55:24.116Z,5.60
2022-09-25T05:57:54.307Z,5.30
2022-09-25T06:00:24.390Z,6.40
2022-09-25T06:02:54.698Z,5.30
2022-09-25T06:05:24.877Z,4.78
2022-09-25T06:07:55.749Z,6.62
2022-09-25T06:10:27.395Z,4.85
2022-09-25T06:12:59.846Z,4.35
2022-09-25T06:15:31.290Z,5.35
2022-09-25T06:18:01.463Z,5.42
2022-09-25T06:20:31.559Z,5.87
2022-09-25T06:23:04.507Z,4.35
2022-09-25T06:25:35.425Z,4.85
2022-09-25T06:28:06.098Z,4.53
2022-09-25T06:30:37.525Z,4.47
2022-09-25T06:33:10.259Z,3.90
2022-09-25T06:35:47.622Z,5.12
2022-09-25T06:38:21.204Z,6.60
2022-09-25T06:40:51.555Z,3.95
2022-09-25T06:43:21.752Z,4.55
2022-09-25T06:45:55.818Z,4.47
2022-09-25T06:48:26.294Z,4.08
2022-09-25T06:50:57.547Z,7.97
2022-09-25T06:53:27.973Z,6.95
2022-09-25T06:56:00.624Z,2.22
2022-09-25T06:58:31.766Z,1.65
2022-09-25T07:01:05.154Z,1.60
2022-09-25T07:03:34.810Z,2.70
2022-09-25T07:06:06.157Z,1.50
2022-09-25T07:08:36.576Z,2.25
2022-09-25T07:11:06.961Z,2.98
2022-09-25T07:13:38.049Z,2.80
2022-09-25T07:16:09.335Z,2.30
2022-09-25T07:18:39.606Z,3.55
2022-09-25T07:21:11.135Z,3.52
2022-09-25T07:23:42.936Z,4.12
2022-09-25T07:26:13.969Z,3.62
2022-09-25T07:28:44.665Z,3.10
2022-09-25T07:31:18.212Z,4.30
2022-09-25T07:33:48.041Z,4.20
2022-09-25T07:36:19.259Z,4.80
2022-09-25T07:38:51.505Z,5.15
2022-09-25T07:41:23.851Z,5.55
2022-09-25T07:44:11.888Z,5.80
2022-09-25T07:46:28.599Z,5.75
2022-09-25T07:48:58.950Z,5.55
2022-09-25T07:51:29.095Z,3.77
2022-09-25T07:54:00.344Z,3.25
2022-09-25T07:56:30.562Z,2.90
2022-09-25T07:59:00.771Z,3.70
2022-09-25T08:01:31.077Z,7.37
2022-09-25T08:04:01.162Z,4.85
2022-09-25T08:06:31.266Z,4.30
2022-09-25T08:09:01.378Z,5.25
2022-09-25T08:11:32.403Z,4.47
2022-09-25T08:14:03.300Z,4.47
2022-09-25T08:16:34.047Z,5.72
2022-09-25T08:19:04.945Z,4.90
2022-09-25T08:21:36.729Z,3.77
2022-09-25T08:24:07.302Z,3.95
2022-09-25T08:26:37.895Z,4.87
2022-09-25T08:29:09.774Z,6.90
2022-09-25T08:31:39.930Z,3.90
2022-09-25T08:34:36.257Z,3.95
2022-09-25T08:36:44.260Z,3.80
2022-09-25T08:39:14.429Z,4.72
2022-09-25T08:41:48.714Z,5.12
2022-09-25T08:44:18.626Z,4.85
2022-09-25T08:46:54.214Z,5.53
2022-09-25T08:49:26.887Z,7.40
2022-09-25T08:51:59.070Z,3.67
2022-09-25T08:54:30.567Z,5.85
2022-09-25T08:57:03.239Z,5.60
2022-09-25T08:59:33.169Z,5.37
2022-09-25T09:02:04.850Z,4.08
2022-09-25T09:04:36.183Z,7.17
2022-09-25T09:07:26.254Z,7.87
2022-09-25T09:09:43.321Z,12.03
2022-09-25T09:12:14.722Z,4.28
2022-09-25T09:14:46.378Z,3.80
2022-09-25T09:17:17.623Z,6.33
2022-09-25T09:19:53.207Z,4.35
2022-09-25T09:22:27.786Z,4.20
2022-09-25T09:24:59.206Z,2.35
2022-09-25T09:27:29.071Z,3.08
2022-09-25T09:30:05.180Z,3.30
2022-09-25T09:32:35.331Z,3.15
2022-09-25T09:35:07.407Z,2.83
2022-09-25T09:37:39.015Z,4.40
2022-09-25T09:40:10.674Z,3.98
2022-09-25T09:42:43.153Z,4.67
2022-09-25T09:45:14.625Z,3.52
2022-09-25T09:47:52.748Z,3.50
2022-09-25T09:50:32.916Z,5.53
2022-09-25T09:53:12.949Z,6.28
2022-09-25T09:55:44.412Z,4.10
2022-09-25T09:58:15.681Z,3.30
2022-09-25T10:00:46.593Z,5.40
2022-09-25T10:03:18.222Z,4.15
2022-09-25T10:07:03.541Z,4.03
2022-09-25T10:08:49.317Z,5.72
2022-09-25T10:11:20.630Z,3.45
2022-09-25T10:13:51.286Z,4.92
2022-09-25T10:16:23.590Z,5.08
2022-09-25T10:18:54.904Z,2.87
2022-09-25T10:21:26.595Z,2.92
2022-09-25T10:23:59.083Z,4.08
2022-09-25T10:26:30.607Z,4.03
2022-09-25T10:29:02.456Z,4.92
2022-09-25T10:31:34.966Z,3.33
2022-09-25T10:34:05.093Z,3.92
2022-09-25T10:36:34.970Z,5.67
2022-09-25T10:39:39.083Z,4.08
2022-09-25T10:41:52.612Z,7.03
2022-09-25T10:44:24.160Z,5.08
2022-09-25T10:46:58.067Z,4.40
2022-09-25T10:49:32.097Z,3.75
2022-09-25T10:52:04.146Z,4.58
2022-09-25T10:54:44.540Z,4.78
2022-09-25T10:57:10.577Z,3.80
2022-09-25T10:59:40.865Z,3.27
2022-09-25T11:02:13.713Z,3.45
2022-09-25T11:04:45.497Z,5.12
2022-09-25T11:07:21.062Z,4.70
2022-09-25T11:09:59.948Z,5.65
2022-09-25T11:12:32.544Z,5.37
2022-09-25T11:15:11.066Z,3.62
2022-09-25T11:17:43.128Z,3.70
2022-09-25T11:20:15.180Z,2.72
2022-09-25T11:22:48.521Z,3.37
2022-09-25T11:25:22.569Z,5.53
2022-09-25T11:27:54.654Z,4.08
2022-09-25T11:30:27.859Z,2.72
2022-09-25T11:33:02.280Z,2.15
2022-09-25T11:35:37.595Z,3.65
2022-09-25T11:38:11.248Z,3.37
2022-09-25T11:40:43.576Z,4.70
2022-09-25T11:43:16.346Z,2.98
2022-09-25T11:45:55.101Z,4.37
2022-09-25T11:48:28.728Z,2.75
2022-09-25T11:51:02.558Z,4.40
2022-09-25T11:54:18.277Z,4.00
2022-09-25T11:56:08.187Z,2.80
2022-09-25T11:58:42.184Z,3.98
2022-09-25T12:01:16.807Z,4.05
2022-09-25T12:03:48.365Z,4.50
2022-09-25T12:06:21.145Z,5.42
2022-09-25T12:08:54.032Z,4.80
2022-09-25T12:11:25.784Z,4.67
2022-09-25T12:14:00.424Z,4.42
2022-09-25T12:16:44.851Z,3.60
2022-09-25T12:19:05.940Z,5.12
2022-09-25T12:21:36.410Z,3.37
2022-09-25T12:24:12.542Z,3.33
2022-09-25T12:26:46.483Z,2.83
2022-09-25T12:29:18.034Z,5.28
2022-09-25T12:31:47.880Z,3.95
2022-09-25T12:34:19.298Z,3.60
2022-09-25T12:36:50.682Z,4.58
2022-09-25T12:39:22.276Z,4.58
2022-09-25T12:41:53.964Z,4.30
2022-09-25T12:44:27.584Z,3.92
2022-09-25T12:46:59.387Z,5.10
2022-09-25T12:49:32.161Z,3.40
2022-09-25T12:52:06.313Z,7.72
2022-09-25T12:54:37.707Z,5.20
2022-09-25T12:57:09.063Z,4.75
2022-09-25T12:59:46.177Z,7.22
2022-09-25T13:02:14.781Z,4.40
2022-09-25T13:04:47.203Z,5.55
2022-09-25T13:07:21.162Z,4.00
2022-09-25T13:09:50.949Z,5.40
2022-09-25T13:12:28.550Z,4.03
2022-09-25T13:14:59.619Z,4.42
2022-09-25T13:17:31.613Z,6.60
2022-09-25T13:20:13.274Z,4.58
2022-09-25T13:22:43.908Z,5.03
2022-09-25T13:25:16.375Z,5.55
2022-09-25T13:27:47.358Z,5.20
2022-09-25T13:30:29.143Z,6.83
2022-09-25T13:33:00.749Z,4.33
2022-09-25T13:35:32.319Z,4.75
2022-09-25T13:38:03.590Z,4.90
2022-09-25T13:40:36.409Z,5.28
2022-09-25T13:43:08.449Z,4.90
2022-09-25T13:45:40.010Z,5.42
2022-09-25T13:48:11.616Z,4.22
2022-09-25T13:50:46.811Z,4.80
2022-09-25T13:53:19.161Z,5.45
2022-09-25T13:55:51.417Z,5.83
2022-09-25T13:58:22.241Z,5.45
2022-09-25T14:00:54.613Z,4.50
2022-09-25T14:03:50.690Z,4.47
2022-09-25T14:06:10.176Z,5.40
2022-09-25T14:08:43.727Z,6.78
2022-09-25T14:11:15.048Z,5.95
2022-09-25T14:13:46.619Z,7.97
2022-09-25T14:16:18.329Z,4.95
2022-09-25T14:18:54.862Z,4.55
2022-09-25T14:21:23.051Z,7.40
2022-09-25T14:23:54.683Z,6.20
2022-09-25T14:26:24.484Z,6.78
2022-09-25T14:28:55.773Z,7.37
2022-09-25T14:31:27.443Z,5.55
2022-09-25T14:33:58.914Z,8.13
2022-09-25T14:36:28.829Z,7.00
2022-09-25T14:39:03.276Z,9.30
2022-09-25T14:41:34.658Z,6.15
2022-09-25T14:44:05.918Z,7.87
2022-09-25T14:46:36.967Z,6.75
2022-09-25T14:49:12.623Z,7.95
2022-09-25T14:51:44.726Z,9.33
2022-09-25T14:54:17.319Z,9.58
2022-09-25T14:56:53.516Z,10.65
2022-09-25T14:59:24.642Z,9.33
2022-09-25T15:01:55.279Z,9.50
2022-09-25T15:04:29.523Z,3.77
2022-09-25T15:07:00.907Z,3.50
2022-09-25T15:09:32.254Z,4.37
2022-09-25T15:12:03.567Z,2.00
2022-09-25T15:14:34.957Z,3.85
2022-09-25T15:17:07.710Z,1.85
2022-09-25T15:19:43.732Z,5.00
2022-09-25T15:25:09.310Z,1.90
2022-09-25T15:27:59.788Z,4.00
2022-09-25T15:30:52.349Z,1.75
2022-09-25T15:33:21.221Z,3.40
2022-09-25T15:35:56.461Z,3.27
2022-09-25T15:38:30.921Z,1.95
2022-09-25T15:41:01.335Z,2.10
2022-09-25T15:43:31.583Z,3.08
2022-09-25T15:46:03.218Z,2.72
2022-09-25T15:48:36.884Z,3.60
2022-09-25T15:51:08.309Z,3.55
2022-09-25T15:53:41.067Z,2.47
2022-09-25T15:56:12.344Z,2.52
2022-09-25T15:58:44.088Z,2.33
2022-09-25T16:01:22.602Z,2.42
2022-09-25T16:03:57.345Z,3.77
2022-09-25T16:06:27.568Z,2.35
2022-09-25T16:08:59.092Z,2.37
2022-09-25T16:11:29.325Z,2.25
2022-09-25T16:14:00.590Z,2.62
2022-09-25T16:16:32.106Z,2.30
2022-09-25T16:19:06.520Z,5.35
2022-09-25T16:21:37.813Z,1.65
2022-09-25T16:24:10.405Z,3.55
2022-09-25T16:26:42.625Z,2.33
2022-09-25T16:29:14.002Z,2.25
2022-09-25T16:32:06.510Z,2.65
2022-09-25T16:34:25.093Z,3.08
2022-09-25T16:36:57.803Z,3.62
2022-09-25T16:39:28.932Z,4.08
2022-09-25T16:42:00.667Z,1.77
2022-09-25T16:44:31.937Z,3.60
2022-09-25T16:47:01.683Z,3.95
2022-09-25T16:49:33.160Z,5.40
2022-09-25T16:52:04.607Z,5.33
2022-09-25T16:54:35.884Z,3.17
2022-09-25T16:57:07.332Z,6.72
2022-09-25T16:59:41.469Z,5.05
2022-09-25T17:02:12.874Z,7.28
2022-09-25T17:04:43.123Z,5.92
2022-09-25T17:07:13.440Z,8.85
2022-09-25T17:09:43.637Z,5.28
2022-09-25T17:12:15.106Z,5.62
2022-09-25T17:14:45.097Z,3.92
2022-09-25T17:17:16.368Z,4.72
2022-09-25T17:19:50.114Z,3.37
2022-09-25T17:22:20.277Z,3.33
2022-09-25T17:24:50.390Z,3.02
2022-09-25T17:27:20.415Z,2.20
2022-09-25T17:29:50.977Z,2.67
2022-09-25T17:32:20.974Z,3.92
2022-09-25T17:34:51.343Z,3.25
2022-09-25T17:37:21.341Z,4.15
2022-09-25T17:39:51.354Z,3.67
2022-09-25T17:42:21.366Z,2.17
2022-09-25T17:44:51.450Z,2.58
2022-09-25T17:47:22.868Z,2.80
2022-09-25T17:49:52.952Z,2.87
2022-09-25T17:52:23.203Z,2.12
2022-09-25T17:54:53.204Z,1.90
2022-09-25T17:57:23.321Z,2.87
2022-09-25T17:59:53.285Z,3.27
2022-09-25T18:02:23.457Z,4.70
2022-09-25T18:04:53.681Z,5.10
2022-09-25T18:07:24.486Z,8.88
2022-09-25T18:09:54.547Z,9.50
2022-09-25T18:12:24.623Z,5.58
2022-09-25T18:14:54.715Z,7.65
2022-09-25T18:17:26.108Z,3.92
2022-09-25T18:19:57.541Z,5.25
2022-09-25T18:22:29.377Z,4.28
2022-09-25T18:25:00.605Z,7.70
2022-09-25T18:27:32.091Z,3.67
2022-09-25T18:30:02.783Z,3.83
2022-09-25T18:32:34.095Z,6.12
2022-09-25T18:35:04.402Z,7.30
2022-09-25T18:37:34.882Z,5.40
2022-09-25T18:40:05.207Z,4.10
2022-09-25T18:42:36.099Z,5.97
2022-09-25T18:45:07.202Z,3.62
2022-09-25T18:47:40.339Z,5.15
2022-09-25T18:50:12.312Z,3.60
2022-09-25T18:52:44.082Z,3.33
2022-09-25T18:55:14.230Z,3.40
2022-09-25T18:57:44.315Z,4.55
2022-09-25T19:00:14.734Z,2.62
2022-09-25T19:02:45.684Z,4.30
2022-09-25T19:05:17.192Z,2.05
2022-09-25T19:07:47.282Z,2.25
2022-09-25T19:10:17.567Z,5.62
2022-09-25T19:12:47.773Z,1.72
2022-09-25T19:15:18.100Z,2.67
2022-09-25T19:17:48.269Z,2.65
2022-09-25T19:20:19.285Z,2.35
2022-09-25T19:22:49.469Z,4.92
2022-09-25T19:25:22.488Z,1.98
2022-09-25T19:27:50.987Z,2.42
2022-09-25T19:30:21.173Z,2.22
2022-09-25T19:32:52.052Z,1.92
2022-09-25T19:35:22.059Z,2.12
2022-09-25T19:37:52.048Z,4.78
2022-09-25T19:40:23.644Z,4.50
2022-09-25T19:42:53.888Z,4.53
2022-09-25T19:45:24.038Z,2.80
2022-09-25T19:47:54.262Z,3.85
2022-09-25T19:50:24.381Z,2.80
2022-09-25T19:52:55.908Z,3.00
2022-09-25T19:55:25.888Z,4.85
2022-09-25T19:57:56.585Z,3.10
2022-09-25T20:00:27.858Z,1.40
2022-09-25T20:02:58.251Z,2.45
2022-09-25T20:05:29.097Z,2.62
2022-09-25T20:07:59.136Z,2.05
2022-09-25T20:10:30.423Z,2.60
2022-09-25T20:13:01.005Z,2.00
2022-09-25T20:15:31.699Z,2.33
2022-09-25T20:18:02.213Z,1.90
2022-09-25T20:20:32.271Z,3.47
2022-09-25T20:23:02.389Z,2.15
2022-09-25T20:25:32.818Z,2.98
2022-09-25T20:28:03.125Z,2.80
2022-09-25T20:30:34.525Z,1.77
2022-09-25T20:33:06.044Z,2.10
2022-09-25T20:35:36.214Z,2.72
2022-09-25T20:38:07.717Z,3.20
2022-09-25T20:40:39.067Z,3.05
2022-09-25T20:43:09.286Z,3.98
2022-09-25T20:45:39.543Z,3.35
2022-09-25T20:48:10.048Z,4.85
2022-09-25T20:50:40.337Z,2.42
2022-09-25T20:53:11.131Z,3.17
2022-09-25T20:55:41.105Z,3.58
2022-09-25T20:58:11.617Z,3.62
2022-09-25T21:00:41.775Z,3.02
2022-09-25T21:03:11.971Z,3.25
2022-09-25T21:05:43.925Z,2.80
2022-09-25T21:08:14.015Z,3.67
2022-09-25T21:10:44.097Z,2.35
2022-09-25T21:13:14.346Z,3.65
2022-09-25T21:15:44.965Z,2.55
2022-09-25T21:18:14.981Z,4.35
2022-09-25T21:20:45.282Z,2.80
2022-09-25T21:23:15.317Z,1.98
2022-09-25T21:25:45.641Z,4.42
2022-09-25T21:28:15.763Z,3.77
2022-09-25T21:30:45.830Z,2.70
2022-09-25T21:33:16.758Z,2.00
2022-09-25T21:35:48.152Z,2.35
2022-09-25T21:38:18.271Z,3.67
2022-09-25T21:40:48.447Z,4.53
2022-09-25T21:43:18.512Z,3.77
2022-09-25T21:45:48.833Z,2.47
2022-09-25T21:48:18.956Z,3.30
2022-09-25T21:50:50.748Z,3.45
2022-09-25T21:53:20.756Z,3.20
2022-09-25T21:55:51.264Z,4.28
2022-09-25T21:58:21.255Z,3.85
2022-09-25T22:00:51.298Z,3.52
2022-09-25T22:03:21.593Z,4.20
2022-09-25T22:05:52.961Z,4.20
2022-09-25T22:08:23.058Z,5.65
2022-09-25T22:10:54.438Z,4.78
2022-09-25T22:13:24.763Z,3.92
2022-09-25T22:15:56.040Z,3.25
2022-09-25T22:18:26.182Z,2.87
2022-09-25T22:20:56.657Z,2.22
2022-09-25T22:23:27.495Z,2.02
2022-09-25T22:25:58.129Z,1.77
2022-09-25T22:28:28.160Z,2.35
2022-09-25T22:30:58.288Z,2.50
2022-09-25T22:33:28.591Z,2.27
2022-09-25T22:36:00.502Z,2.62
2022-09-25T22:38:31.009Z,2.83
2022-09-25T22:41:02.328Z,3.67
2022-09-25T22:43:32.485Z,3.52
2022-09-25T22:46:02.709Z,2.33
2022-09-25T22:48:33.256Z,2.20
2022-09-25T22:51:05.063Z,2.20
2022-09-25T22:53:36.163Z,1.47
2022-09-25T22:56:07.563Z,4.80
2022-09-25T22:58:37.771Z,3.72
2022-09-25T23:01:09.100Z,3.35
2022-09-25T23:03:39.496Z,3.12
2022-09-25T23:06:09.924Z,2.37
2022-09-25T23:08:40.022Z,3.83
2022-09-25T23:11:10.216Z,2.27
2022-09-25T23:13:40.336Z,3.25
2022-09-25T23:16:10.539Z,3.27
2022-09-25T23:18:43.444Z,1.80
2022-09-25T23:21:13.693Z,4.53
2022-09-25T23:23:43.886Z,5.67
2022-09-25T23:26:14.007Z,4.08
2022-09-25T23:28:44.330Z,5.95
2022-09-25T23:31:16.439Z,2.10
2022-09-25T23:33:47.173Z,2.52
2022-09-25T23:36:18.779Z,5.58
2022-09-25T23:38:49.757Z,9.30
2022-09-25T23:41:21.113Z,6.53
2022-09-25T23:43:52.113Z,5.42
2022-09-25T23:46:22.967Z,6.15
2022-09-25T23:48:53.648Z,12.35
2022-09-25T23:51:24.261Z,12.63
2022-09-25T23:53:55.245Z,10.08
2022-09-25T23:56:26.503Z,7.08
2022-09-25T23:58:58.261Z,10.28
